sensor_id;sensor_type;location;lat;lon;timestamp;pressure;altitude;pressure_sealevel;temperature;humidity
48862;BME280;34681;49.188;-0.374;2022-12-18T00:01:31;101999.03;;;-1.25;nan
48862;BME280;34681;49.188;-0.374;2022-12-18T00:03:57;102006.41;;;-0.99;nan
48862;BME280;34681;49.188;-0.374;2022-12-18T00:06:23;102008.16;;;-0.98;nan
48862;BME280;34681;49.188;-0.374;2022-12-18T00:08:49;102000.78;;;-0.90;nan
48862;BME280;34681;49.188;-0.374;2022-12-18T00:11:18;101999.69;;;-0.84;nan
48862;BME280;34681;49.188;-0.374;2022-12-18T00:13:44;102008.84;;;-0.91;nan
48862;BME280;34681;49.188;-0.374;2022-12-18T00:16:12;102003.31;;;-0.85;nan
48862;BME280;34681;49.188;-0.374;2022-12-18T00:18:38;101998.81;;;-0.85;nan
48862;BME280;34681;49.188;-0.374;2022-12-18T00:21:06;102005.47;;;-0.67;nan
48862;BME280;34681;49.188;-0.374;2022-12-18T00:23:33;101999.84;;;-0.89;nan
48862;BME280;34681;49.188;-0.374;2022-12-18T00:26:04;102005.19;;;-0.87;nan
48862;BME280;34681;49.188;-0.374;2022-12-18T00:28:29;102004.69;;;-0.70;nan
48862;BME280;34681;49.188;-0.374;2022-12-18T00:31:02;102000.50;;;-0.80;nan
48862;BME280;34681;49.188;-0.374;2022-12-18T00:33:29;101993.00;;;-1.00;nan
48862;BME280;34681;49.188;-0.374;2022-12-18T00:35:54;101985.25;;;-1.11;nan
48862;BME280;34681;49.188;-0.374;2022-12-18T00:38:20;101983.56;;;-1.15;nan
48862;BME280;34681;49.188;-0.374;2022-12-18T00:40:45;101987.94;;;-1.11;nan
48862;BME280;34681;49.188;-0.374;2022-12-18T00:43:10;101978.88;;;-1.07;nan
48862;BME280;34681;49.188;-0.374;2022-12-18T00:45:36;101974.13;;;-0.66;nan
48862;BME280;34681;49.188;-0.374;2022-12-18T00:48:01;101969.63;;;-0.66;nan
48862;BME280;34681;49.188;-0.374;2022-12-18T00:50:27;101980.09;;;-0.88;nan
48862;BME280;34681;49.188;-0.374;2022-12-18T00:52:52;101978.63;;;-0.68;nan
48862;BME280;34681;49.188;-0.374;2022-12-18T00:55:17;101979.63;;;-0.71;nan
48862;BME280;34681;49.188;-0.374;2022-12-18T00:57:43;101969.47;;;-0.92;nan
48862;BME280;34681;49.188;-0.374;2022-12-18T01:00:13;101968.75;;;-0.66;nan
48862;BME280;34681;49.188;-0.374;2022-12-18T01:02:39;101963.91;;;-0.55;nan
48862;BME280;34681;49.188;-0.374;2022-12-18T01:05:05;101957.34;;;-0.76;nan
48862;BME280;34681;49.188;-0.374;2022-12-18T01:07:31;101939.41;;;-0.74;nan
48862;BME280;34681;49.188;-0.374;2022-12-18T01:09:57;101938.91;;;-0.88;nan
48862;BME280;34681;49.188;-0.374;2022-12-18T01:12:22;101937.16;;;-0.89;nan
48862;BME280;34681;49.188;-0.374;2022-12-18T01:14:47;101930.78;;;-0.55;nan
48862;BME280;34681;49.188;-0.374;2022-12-18T01:17:13;101919.66;;;-0.73;nan
48862;BME280;34681;49.188;-0.374;2022-12-18T01:19:38;101927.50;;;-0.37;nan
48862;BME280;34681;49.188;-0.374;2022-12-18T01:22:04;101922.97;;;-0.07;nan
48862;BME280;34681;49.188;-0.374;2022-12-18T01:24:29;101937.38;;;-0.38;nan
48862;BME280;34681;49.188;-0.374;2022-12-18T01:26:54;101945.56;;;-0.42;nan
48862;BME280;34681;49.188;-0.374;2022-12-18T01:29:20;101938.91;;;-0.29;nan
48862;BME280;34681;49.188;-0.374;2022-12-18T01:31:46;101932.44;;;0.05;nan
48862;BME280;34681;49.188;-0.374;2022-12-18T01:34:11;101941.69;;;-0.04;nan
48862;BME280;34681;49.188;-0.374;2022-12-18T01:36:38;101927.50;;;-0.37;nan
48862;BME280;34681;49.188;-0.374;2022-12-18T01:39:10;101929.06;;;-0.88;nan
48862;BME280;34681;49.188;-0.374;2022-12-18T01:41:37;101939.13;;;-0.37;nan
48862;BME280;34681;49.188;-0.374;2022-12-18T01:47:20;101953.97;;;0.05;nan
48862;BME280;34681;49.188;-0.374;2022-12-18T01:49:46;101940.19;;;0.14;nan
48862;BME280;34681;49.188;-0.374;2022-12-18T01:52:13;101937.63;;;0.11;nan
48862;BME280;34681;49.188;-0.374;2022-12-18T01:54:38;101945.06;;;-0.25;nan
48862;BME280;34681;49.188;-0.374;2022-12-18T01:57:04;101946.84;;;-0.24;nan
48862;BME280;34681;49.188;-0.374;2022-12-18T01:59:32;101939.47;;;-0.77;nan
48862;BME280;34681;49.188;-0.374;2022-12-18T02:01:59;101936.06;;;-0.82;nan
48862;BME280;34681;49.188;-0.374;2022-12-18T02:04:26;101940.59;;;-0.54;nan
48862;BME280;34681;49.188;-0.374;2022-12-18T02:07:10;101941.19;;;-0.17;nan
48862;BME280;34681;49.188;-0.374;2022-12-18T02:10:39;101938.50;;;0.11;nan
48862;BME280;34681;49.188;-0.374;2022-12-18T02:12:49;101935.09;;;-0.22;nan
48862;BME280;34681;49.188;-0.374;2022-12-18T02:15:43;101937.38;;;-0.38;nan
48862;BME280;34681;49.188;-0.374;2022-12-18T02:18:19;101933.94;;;-0.41;nan
48862;BME280;34681;49.188;-0.374;2022-12-18T02:21:05;101931.84;;;-0.61;nan
48862;BME280;34681;49.188;-0.374;2022-12-18T02:23:45;101929.00;;;-0.57;nan
48862;BME280;34681;49.188;-0.374;2022-12-18T02:26:19;101926.94;;;-1.07;nan
48862;BME280;34681;49.188;-0.374;2022-12-18T02:29:08;101916.38;;;-1.14;nan
48862;BME280;34681;49.188;-0.374;2022-12-18T02:31:41;101906.19;;;-1.33;nan
48862;BME280;34681;49.188;-0.374;2022-12-18T02:34:09;101907.91;;;-1.31;nan
48862;BME280;34681;49.188;-0.374;2022-12-18T02:36:38;101910.19;;;-1.17;nan
48862;BME280;34681;49.188;-0.374;2022-12-18T02:39:05;101903.63;;;-1.38;nan
48862;BME280;34681;49.188;-0.374;2022-12-18T02:41:32;101901.06;;;-1.43;nan
48862;BME280;34681;49.188;-0.374;2022-12-18T02:44:00;101901.16;;;-1.46;nan
48862;BME280;34681;49.188;-0.374;2022-12-18T02:46:45;101902.00;;;-1.44;nan
48862;BME280;34681;49.188;-0.374;2022-12-18T02:51:53;101893.94;;;-1.44;nan
48862;BME280;34681;49.188;-0.374;2022-12-18T02:57:11;101889.06;;;-1.29;nan
48862;BME280;34681;49.188;-0.374;2022-12-18T03:00:07;101885.63;;;-1.03;nan
48862;BME280;34681;49.188;-0.374;2022-12-18T03:05:12;101884.84;;;-1.07;nan
48862;BME280;34681;49.188;-0.374;2022-12-18T03:08:15;101867.91;;;-1.10;nan
48862;BME280;34681;49.188;-0.374;2022-12-18T03:10:50;101866.84;;;-0.75;nan
48862;BME280;34681;49.188;-0.374;2022-12-18T03:13:21;101865.25;;;-0.81;nan
48862;BME280;34681;49.188;-0.374;2022-12-18T03:15:52;101866.41;;;-0.90;nan
48862;BME280;34681;49.188;-0.374;2022-12-18T03:18:58;101864.59;;;-1.19;nan
48862;BME280;34681;49.188;-0.374;2022-12-18T03:21:28;101865.50;;;-1.20;nan
48862;BME280;34681;49.188;-0.374;2022-12-18T03:23:55;101870.94;;;-0.92;nan
48862;BME280;34681;49.188;-0.374;2022-12-18T03:26:24;101864.72;;;-0.64;nan
48862;BME280;34681;49.188;-0.374;2022-12-18T03:28:53;101854.81;;;-0.92;nan
48862;BME280;34681;49.188;-0.374;2022-12-18T03:31:22;101852.19;;;-1.24;nan
48862;BME280;34681;49.188;-0.374;2022-12-18T03:33:58;101843.19;;;-1.22;nan
48862;BME280;34681;49.188;-0.374;2022-12-18T03:36:26;101841.88;;;-1.38;nan
48862;BME280;34681;49.188;-0.374;2022-12-18T03:38:52;101848.13;;;-1.08;nan
48862;BME280;34681;49.188;-0.374;2022-12-18T03:42:25;101843.00;;;-0.86;nan
48862;BME280;34681;49.188;-0.374;2022-12-18T03:44:29;101835.94;;;-0.61;nan
48862;BME280;34681;49.188;-0.374;2022-12-18T03:52:26;101842.81;;;-0.52;nan
48862;BME280;34681;49.188;-0.374;2022-12-18T03:54:54;101838.47;;;-0.56;nan
48862;BME280;34681;49.188;-0.374;2022-12-18T03:57:24;101837.72;;;-0.61;nan
48862;BME280;34681;49.188;-0.374;2022-12-18T03:59:55;101852.88;;;-0.31;nan
48862;BME280;34681;49.188;-0.374;2022-12-18T04:02:22;101861.72;;;-0.27;nan
48862;BME280;34681;49.188;-0.374;2022-12-18T04:04:51;101857.69;;;-0.14;nan
48862;BME280;34681;49.188;-0.374;2022-12-18T04:07:18;101863.16;;;-0.43;nan
48862;BME280;34681;49.188;-0.374;2022-12-18T04:09:45;101868.13;;;-0.59;nan
48862;BME280;34681;49.188;-0.374;2022-12-18T04:12:11;101865.22;;;-0.23;nan
48862;BME280;34681;49.188;-0.374;2022-12-18T04:14:36;101869.47;;;-0.18;nan
48862;BME280;34681;49.188;-0.374;2022-12-18T04:17:02;101862.50;;;-0.23;nan
48862;BME280;34681;49.188;-0.374;2022-12-18T04:19:28;101854.47;;;-0.25;nan
48862;BME280;34681;49.188;-0.374;2022-12-18T04:21:53;101846.50;;;-0.54;nan
48862;BME280;34681;49.188;-0.374;2022-12-18T04:24:19;101859.66;;;-0.19;nan
48862;BME280;34681;49.188;-0.374;2022-12-18T04:26:44;101859.97;;;-0.02;nan
48862;BME280;34681;49.188;-0.374;2022-12-18T04:29:10;101871.19;;;0.11;nan
48862;BME280;34681;49.188;-0.374;2022-12-18T04:31:35;101867.81;;;0.31;nan
48862;BME280;34681;49.188;-0.374;2022-12-18T04:34:01;101865.56;;;-0.08;nan
48862;BME280;34681;49.188;-0.374;2022-12-18T04:36:26;101865.16;;;-0.22;nan
48862;BME280;34681;49.188;-0.374;2022-12-18T04:38:52;101875.47;;;-0.08;nan
48862;BME280;34681;49.188;-0.374;2022-12-18T04:41:17;101879.69;;;0.25;nan
48862;BME280;34681;49.188;-0.374;2022-12-18T04:43:43;101868.94;;;0.24;nan
48862;BME280;34681;49.188;-0.374;2022-12-18T04:46:09;101874.59;;;-0.10;nan
48862;BME280;34681;49.188;-0.374;2022-12-18T04:48:34;101864.34;;;-0.25;nan
48862;BME280;34681;49.188;-0.374;2022-12-18T04:51:00;101866.84;;;0.07;nan
48862;BME280;34681;49.188;-0.374;2022-12-18T04:53:25;101866.44;;;0.19;nan
48862;BME280;34681;49.188;-0.374;2022-12-18T04:56:02;101863.22;;;0.08;nan
48862;BME280;34681;49.188;-0.374;2022-12-18T04:58:28;101863.38;;;0.04;nan
48862;BME280;34681;49.188;-0.374;2022-12-18T05:00:53;101855.09;;;0.10;nan
48862;BME280;34681;49.188;-0.374;2022-12-18T05:03:18;101853.44;;;0.06;nan
48862;BME280;34681;49.188;-0.374;2022-12-18T05:05:44;101843.09;;;0.20;nan
48862;BME280;34681;49.188;-0.374;2022-12-18T05:08:09;101852.31;;;0.13;nan
48862;BME280;34681;49.188;-0.374;2022-12-18T05:10:34;101841.25;;;-0.05;nan
48862;BME280;34681;49.188;-0.374;2022-12-18T05:13:00;101827.78;;;-0.05;nan
48862;BME280;34681;49.188;-0.374;2022-12-18T05:15:32;101820.78;;;-0.10;nan
48862;BME280;34681;49.188;-0.374;2022-12-18T05:17:58;101816.75;;;0.03;nan
48862;BME280;34681;49.188;-0.374;2022-12-18T05:20:24;101815.88;;;0.03;nan
48862;BME280;34681;49.188;-0.374;2022-12-18T05:22:51;101811.16;;;-0.16;nan
48862;BME280;34681;49.188;-0.374;2022-12-18T05:25:16;101811.34;;;-0.48;nan
48862;BME280;34681;49.188;-0.374;2022-12-18T05:27:42;101815.69;;;-0.18;nan
48862;BME280;34681;49.188;-0.374;2022-12-18T05:30:08;101812.53;;;-0.04;nan
48862;BME280;34681;49.188;-0.374;2022-12-18T05:32:34;101814.78;;;0.08;nan
48862;BME280;34681;49.188;-0.374;2022-12-18T05:35:00;101799.19;;;-0.07;nan
48862;BME280;34681;49.188;-0.374;2022-12-18T05:37:25;101800.13;;;0.17;nan
48862;BME280;34681;49.188;-0.374;2022-12-18T05:39:50;101799.34;;;0.13;nan
48862;BME280;34681;49.188;-0.374;2022-12-18T05:42:16;101791.25;;;0.38;nan
48862;BME280;34681;49.188;-0.374;2022-12-18T05:44:41;101796.50;;;-0.07;nan
48862;BME280;34681;49.188;-0.374;2022-12-18T05:47:06;101786.34;;;0.01;nan
48862;BME280;34681;49.188;-0.374;2022-12-18T05:49:32;101779.69;;;0.11;nan
48862;BME280;34681;49.188;-0.374;2022-12-18T05:51:57;101769.13;;;-0.46;nan
48862;BME280;34681;49.188;-0.374;2022-12-18T05:54:22;101763.94;;;-0.79;nan
48862;BME280;34681;49.188;-0.374;2022-12-18T05:56:48;101761.25;;;-0.79;nan
48862;BME280;34681;49.188;-0.374;2022-12-18T05:59:13;101764.19;;;-0.87;nan
48862;BME280;34681;49.188;-0.374;2022-12-18T06:01:38;101763.13;;;-0.81;nan
48862;BME280;34681;49.188;-0.374;2022-12-18T06:04:04;101747.75;;;-0.49;nan
48862;BME280;34681;49.188;-0.374;2022-12-18T06:06:29;101748.56;;;-0.47;nan
48862;BME280;34681;49.188;-0.374;2022-12-18T06:08:55;101735.22;;;-0.24;nan
48862;BME280;34681;49.188;-0.374;2022-12-18T06:11:23;101733.47;;;-0.26;nan
48862;BME280;34681;49.188;-0.374;2022-12-18T06:13:53;101739.25;;;-0.64;nan
48862;BME280;34681;49.188;-0.374;2022-12-18T06:16:19;101752.50;;;-0.58;nan
48862;BME280;34681;49.188;-0.374;2022-12-18T06:18:44;101752.81;;;-0.40;nan
48862;BME280;34681;49.188;-0.374;2022-12-18T06:21:09;101751.66;;;-0.33;nan
48862;BME280;34681;49.188;-0.374;2022-12-18T06:23:35;101748.41;;;-0.18;nan
48862;BME280;34681;49.188;-0.374;2022-12-18T06:26:13;101738.31;;;-0.36;nan
48862;BME280;34681;49.188;-0.374;2022-12-18T06:28:38;101731.47;;;-0.20;nan
48862;BME280;34681;49.188;-0.374;2022-12-18T06:31:04;101732.22;;;-0.41;nan
48862;BME280;34681;49.188;-0.374;2022-12-18T06:33:30;101726.72;;;-0.38;nan
48862;BME280;34681;49.188;-0.374;2022-12-18T06:36:04;101722.31;;;-0.66;nan
48862;BME280;34681;49.188;-0.374;2022-12-18T06:38:32;101726.47;;;-0.83;nan
48862;BME280;34681;49.188;-0.374;2022-12-18T06:40:57;101720.69;;;-0.71;nan
48862;BME280;34681;49.188;-0.374;2022-12-18T06:43:23;101720.50;;;-0.65;nan
48862;BME280;34681;49.188;-0.374;2022-12-18T06:45:48;101715.69;;;-0.55;nan
48862;BME280;34681;49.188;-0.374;2022-12-18T06:48:18;101716.44;;;-0.52;nan
48862;BME280;34681;49.188;-0.374;2022-12-18T06:50:44;101717.59;;;-0.34;nan
48862;BME280;34681;49.188;-0.374;2022-12-18T06:53:09;101720.75;;;-0.21;nan
48862;BME280;34681;49.188;-0.374;2022-12-18T06:55:35;101723.56;;;-0.24;nan
48862;BME280;34681;49.188;-0.374;2022-12-18T06:58:00;101716.38;;;0.01;nan
48862;BME280;34681;49.188;-0.374;2022-12-18T07:00:25;101720.03;;;-0.26;nan
48862;BME280;34681;49.188;-0.374;2022-12-18T07:02:51;101723.53;;;-0.49;nan
48862;BME280;34681;49.188;-0.374;2022-12-18T07:05:16;101716.63;;;-0.57;nan
48862;BME280;34681;49.188;-0.374;2022-12-18T07:07:41;101701.91;;;-0.46;nan
48862;BME280;34681;49.188;-0.374;2022-12-18T07:10:07;101705.78;;;-0.29;nan
48862;BME280;34681;49.188;-0.374;2022-12-18T07:12:33;101717.16;;;0.28;nan
48862;BME280;34681;49.188;-0.374;2022-12-18T07:14:58;101713.13;;;0.40;nan
48862;BME280;34681;49.188;-0.374;2022-12-18T07:17:23;101717.25;;;0.72;nan
48862;BME280;34681;49.188;-0.374;2022-12-18T07:19:49;101707.94;;;0.57;nan
48862;BME280;34681;49.188;-0.374;2022-12-18T07:22:14;101705.88;;;0.42;nan
48862;BME280;34681;49.188;-0.374;2022-12-18T07:24:39;101697.81;;;0.64;nan
48862;BME280;34681;49.188;-0.374;2022-12-18T07:27:05;101708.22;;;0.27;nan
48862;BME280;34681;49.188;-0.374;2022-12-18T07:29:30;101695.78;;;0.47;nan
48862;BME280;34681;49.188;-0.374;2022-12-18T07:31:55;101697.75;;;0.65;nan
48862;BME280;34681;49.188;-0.374;2022-12-18T07:34:21;101706.34;;;0.53;nan
48862;BME280;34681;49.188;-0.374;2022-12-18T07:36:46;101710.56;;;0.37;nan
48862;BME280;34681;49.188;-0.374;2022-12-18T07:39:12;101696.50;;;0.52;nan
48862;BME280;34681;49.188;-0.374;2022-12-18T07:41:37;101694.13;;;0.66;nan
48862;BME280;34681;49.188;-0.374;2022-12-18T07:44:03;101691.63;;;0.38;nan
48862;BME280;34681;49.188;-0.374;2022-12-18T07:46:28;101694.53;;;0.34;nan
48862;BME280;34681;49.188;-0.374;2022-12-18T07:48:53;101693.06;;;0.70;nan
48862;BME280;34681;49.188;-0.374;2022-12-18T07:51:19;101694.09;;;0.68;nan
48862;BME280;34681;49.188;-0.374;2022-12-18T07:53:44;101694.38;;;0.37;nan
48862;BME280;34681;49.188;-0.374;2022-12-18T07:56:11;101708.50;;;0.67;nan
48862;BME280;34681;49.188;-0.374;2022-12-18T07:58:37;101709.97;;;0.74;nan
48862;BME280;34681;49.188;-0.374;2022-12-18T08:01:05;101709.31;;;0.91;nan
48862;BME280;34681;49.188;-0.374;2022-12-18T08:03:30;101703.31;;;0.84;nan
48862;BME280;34681;49.188;-0.374;2022-12-18T08:06:04;101691.88;;;0.99;nan
48862;BME280;34681;49.188;-0.374;2022-12-18T08:08:30;101698.53;;;0.69;nan
48862;BME280;34681;49.188;-0.374;2022-12-18T08:10:56;101689.72;;;0.42;nan
48862;BME280;34681;49.188;-0.374;2022-12-18T08:13:22;101686.88;;;0.90;nan
48862;BME280;34681;49.188;-0.374;2022-12-18T08:16:03;101687.72;;;0.23;nan
48862;BME280;34681;49.188;-0.374;2022-12-18T08:18:31;101680.63;;;0.21;nan
48862;BME280;34681;49.188;-0.374;2022-12-18T08:20:57;101677.50;;;0.08;nan
48862;BME280;34681;49.188;-0.374;2022-12-18T08:23:22;101677.28;;;0.38;nan
48862;BME280;34681;49.188;-0.374;2022-12-18T08:25:47;101684.94;;;0.48;nan
48862;BME280;34681;49.188;-0.374;2022-12-18T08:28:13;101686.75;;;0.71;nan
48862;BME280;34681;49.188;-0.374;2022-12-18T08:30:38;101668.38;;;0.81;nan
48862;BME280;34681;49.188;-0.374;2022-12-18T08:33:04;101677.41;;;0.58;nan
48862;BME280;34681;49.188;-0.374;2022-12-18T08:35:30;101668.16;;;0.87;nan
48862;BME280;34681;49.188;-0.374;2022-12-18T08:37:55;101677.56;;;0.77;nan
48862;BME280;34681;49.188;-0.374;2022-12-18T08:40:20;101674.66;;;1.03;nan
48862;BME280;34681;49.188;-0.374;2022-12-18T08:42:46;101676.22;;;0.87;nan
48862;BME280;34681;49.188;-0.374;2022-12-18T08:45:30;101673.81;;;1.23;nan
48862;BME280;34681;49.188;-0.374;2022-12-18T08:47:55;101670.88;;;1.29;nan
48862;BME280;34681;49.188;-0.374;2022-12-18T08:50:21;101666.72;;;1.43;nan
48862;BME280;34681;49.188;-0.374;2022-12-18T08:52:46;101684.47;;;1.68;nan
48862;BME280;34681;49.188;-0.374;2022-12-18T08:55:11;101680.66;;;2.13;nan
48862;BME280;34681;49.188;-0.374;2022-12-18T08:57:37;101676.44;;;2.08;nan
48862;BME280;34681;49.188;-0.374;2022-12-18T09:00:03;101666.00;;;2.38;nan
48862;BME280;34681;49.188;-0.374;2022-12-18T09:02:29;101671.91;;;2.27;nan
48862;BME280;34681;49.188;-0.374;2022-12-18T09:04:54;101667.28;;;2.49;nan
48862;BME280;34681;49.188;-0.374;2022-12-18T09:07:20;101662.44;;;2.75;nan
48862;BME280;34681;49.188;-0.374;2022-12-18T09:09:45;101664.91;;;2.79;nan
48862;BME280;34681;49.188;-0.374;2022-12-18T09:12:10;101677.84;;;2.54;nan
48862;BME280;34681;49.188;-0.374;2022-12-18T09:14:36;101665.50;;;2.86;nan
48862;BME280;34681;49.188;-0.374;2022-12-18T09:17:01;101667.28;;;2.49;nan
48862;BME280;34681;49.188;-0.374;2022-12-18T09:19:27;101681.19;;;2.78;nan
48862;BME280;34681;49.188;-0.374;2022-12-18T09:21:52;101680.69;;;2.51;nan
48862;BME280;34681;49.188;-0.374;2022-12-18T09:24:17;101680.50;;;2.74;nan
48862;BME280;34681;49.188;-0.374;2022-12-18T09:26:43;101685.00;;;2.93;nan
48862;BME280;34681;49.188;-0.374;2022-12-18T09:29:09;101687.13;;;2.48;nan
48862;BME280;34681;49.188;-0.374;2022-12-18T09:31:35;101686.88;;;2.15;nan
48862;BME280;34681;49.188;-0.374;2022-12-18T09:34:00;101680.78;;;2.10;nan
48862;BME280;34681;49.188;-0.374;2022-12-18T09:36:26;101676.69;;;2.41;nan
48862;BME280;34681;49.188;-0.374;2022-12-18T09:38:51;101682.28;;;2.36;nan
48862;BME280;34681;49.188;-0.374;2022-12-18T09:41:36;101683.75;;;2.24;nan
48862;BME280;34681;49.188;-0.374;2022-12-18T09:44:18;101680.78;;;2.10;nan
48862;BME280;34681;49.188;-0.374;2022-12-18T09:46:49;101683.88;;;2.21;nan
48862;BME280;34681;49.188;-0.374;2022-12-18T09:49:19;101673.31;;;2.36;nan
48862;BME280;34681;49.188;-0.374;2022-12-18T09:51:54;101670.59;;;2.92;nan
48862;BME280;34681;49.188;-0.374;2022-12-18T09:54:24;101668.47;;;2.80;nan
48862;BME280;34681;49.188;-0.374;2022-12-18T09:56:51;101653.47;;;3.10;nan
48862;BME280;34681;49.188;-0.374;2022-12-18T09:59:31;101659.66;;;2.76;nan
48862;BME280;34681;49.188;-0.374;2022-12-18T10:01:59;101655.63;;;2.47;nan
48862;BME280;34681;49.188;-0.374;2022-12-18T10:04:25;101659.38;;;2.83;nan
48862;BME280;34681;49.188;-0.374;2022-12-18T10:12:50;101656.28;;;2.71;nan
48862;BME280;34681;49.188;-0.374;2022-12-18T10:16:03;101647.09;;;2.75;nan
48862;BME280;34681;49.188;-0.374;2022-12-18T10:21:00;101645.69;;;3.39;nan
48862;BME280;34681;49.188;-0.374;2022-12-18T10:23:46;101645.44;;;3.78;nan
48862;BME280;34681;49.188;-0.374;2022-12-18T10:26:16;101646.00;;;3.85;nan
48862;BME280;34681;49.188;-0.374;2022-12-18T10:28:43;101636.31;;;4.14;nan
48862;BME280;34681;49.188;-0.374;2022-12-18T10:31:21;101628.38;;;4.27;nan
48862;BME280;34681;49.188;-0.374;2022-12-18T10:33:47;101636.63;;;4.08;nan
48862;BME280;34681;49.188;-0.374;2022-12-18T10:36:12;101631.34;;;4.38;nan
48862;BME280;34681;49.188;-0.374;2022-12-18T10:38:38;101632.41;;;4.35;nan
48862;BME280;34681;49.188;-0.374;2022-12-18T10:41:24;101625.44;;;3.98;nan
48862;BME280;34681;49.188;-0.374;2022-12-18T10:44:16;101612.50;;;4.03;nan
48862;BME280;34681;49.188;-0.374;2022-12-18T10:46:44;101616.84;;;4.23;nan
48862;BME280;34681;49.188;-0.374;2022-12-18T10:49:25;101620.56;;;4.20;nan
48862;BME280;34681;49.188;-0.374;2022-12-18T10:52:07;101615.50;;;3.81;nan
48862;BME280;34681;49.188;-0.374;2022-12-18T10:54:38;101616.84;;;3.90;nan
48862;BME280;34681;49.188;-0.374;2022-12-18T10:59:53;101598.00;;;4.04;nan
48862;BME280;34681;49.188;-0.374;2022-12-18T11:02:36;101588.66;;;4.10;nan
48862;BME280;34681;49.188;-0.374;2022-12-18T11:05:02;101595.81;;;4.11;nan
48862;BME280;34681;49.188;-0.374;2022-12-18T11:07:47;101581.59;;;3.74;nan
48862;BME280;34681;49.188;-0.374;2022-12-18T11:10:17;101584.63;;;4.01;nan
48862;BME280;34681;49.188;-0.374;2022-12-18T11:12:43;101576.72;;;3.81;nan
48862;BME280;34681;49.188;-0.374;2022-12-18T11:15:20;101571.06;;;3.85;nan
48862;BME280;34681;49.188;-0.374;2022-12-18T11:17:48;101572.84;;;4.02;nan
48862;BME280;34681;49.188;-0.374;2022-12-18T11:20:35;101561.69;;;4.24;nan
48862;BME280;34681;49.188;-0.374;2022-12-18T11:23:10;101561.94;;;4.35;nan
48862;BME280;34681;49.188;-0.374;2022-12-18T11:25:37;101554.00;;;4.32;nan
48862;BME280;34681;49.188;-0.374;2022-12-18T11:28:05;101546.97;;;4.12;nan
48862;BME280;34681;49.188;-0.374;2022-12-18T11:31:09;101546.00;;;4.13;nan
48862;BME280;34681;49.188;-0.374;2022-12-18T11:33:39;101549.31;;;3.87;nan
48862;BME280;34681;49.188;-0.374;2022-12-18T11:36:08;101543.50;;;4.10;nan
48862;BME280;34681;49.188;-0.374;2022-12-18T11:38:39;101544.44;;;4.09;nan
48862;BME280;34681;49.188;-0.374;2022-12-18T11:43:50;101546.91;;;4.14;nan
48862;BME280;34681;49.188;-0.374;2022-12-18T11:46:25;101557.31;;;4.53;nan
48862;BME280;34681;49.188;-0.374;2022-12-18T11:51:34;101543.06;;;4.34;nan
48862;BME280;34681;49.188;-0.374;2022-12-18T11:54:11;101542.09;;;4.50;nan
48862;BME280;34681;49.188;-0.374;2022-12-18T11:57:24;101539.03;;;4.25;nan
48862;BME280;34681;49.188;-0.374;2022-12-18T12:08:45;101523.31;;;4.32;nan
48862;BME280;34681;49.188;-0.374;2022-12-18T12:11:23;101521.06;;;4.40;nan
48862;BME280;34681;49.188;-0.374;2022-12-18T12:16:58;101500.59;;;4.03;nan
48862;BME280;34681;49.188;-0.374;2022-12-18T12:22:24;101492.09;;;3.93;nan
48862;BME280;34681;49.188;-0.374;2022-12-18T12:27:36;101477.28;;;4.00;nan
48862;BME280;34681;49.188;-0.374;2022-12-18T12:30:21;101478.38;;;3.96;nan
48862;BME280;34681;49.188;-0.374;2022-12-18T12:38:44;101448.69;;;3.79;nan
48862;BME280;34681;49.188;-0.374;2022-12-18T12:41:13;101441.34;;;3.65;nan
48862;BME280;34681;49.188;-0.374;2022-12-18T12:44:01;101446.59;;;3.68;nan
48862;BME280;34681;49.188;-0.374;2022-12-18T12:46:31;101446.03;;;3.46;nan
48862;BME280;34681;49.188;-0.374;2022-12-18T12:49:03;101444.13;;;3.48;nan
48862;BME280;34681;49.188;-0.374;2022-12-18T12:51:38;101430.09;;;3.57;nan
48862;BME280;34681;49.188;-0.374;2022-12-18T12:54:09;101424.66;;;4.04;nan
48862;BME280;34681;49.188;-0.374;2022-12-18T12:56:42;101427.13;;;3.77;nan
48862;BME280;34681;49.188;-0.374;2022-12-18T12:59:18;101427.72;;;3.66;nan
48862;BME280;34681;49.188;-0.374;2022-12-18T13:10:14;101392.78;;;3.46;nan
48862;BME280;34681;49.188;-0.374;2022-12-18T13:15:41;101378.75;;;3.40;nan
48862;BME280;34681;49.188;-0.374;2022-12-18T13:25:57;101366.50;;;3.64;nan
48862;BME280;34681;49.188;-0.374;2022-12-18T13:31:12;101357.88;;;3.73;nan
48862;BME280;34681;49.188;-0.374;2022-12-18T13:33:41;101363.13;;;3.60;nan
48862;BME280;34681;49.188;-0.374;2022-12-18T13:38:40;101349.47;;;3.93;nan
48862;BME280;34681;49.188;-0.374;2022-12-18T13:43:50;101355.84;;;3.92;nan
48862;BME280;34681;49.188;-0.374;2022-12-18T13:46:30;101351.81;;;4.00;nan
48862;BME280;34681;49.188;-0.374;2022-12-18T13:51:43;101358.72;;;4.35;nan
48862;BME280;34681;49.188;-0.374;2022-12-18T13:54:33;101346.81;;;4.38;nan
48862;BME280;34681;49.188;-0.374;2022-12-18T13:57:00;101347.78;;;4.22;nan
48862;BME280;34681;49.188;-0.374;2022-12-18T13:59:36;101336.38;;;4.46;nan
48862;BME280;34681;49.188;-0.374;2022-12-18T14:02:37;101332.19;;;4.26;nan
48862;BME280;34681;49.188;-0.374;2022-12-18T14:05:03;101332.88;;;4.30;nan
48862;BME280;34681;49.188;-0.374;2022-12-18T14:07:29;101316.59;;;4.30;nan
48862;BME280;34681;49.188;-0.374;2022-12-18T14:09:57;101325.69;;;4.14;nan
48862;BME280;34681;49.188;-0.374;2022-12-18T14:12:29;101325.25;;;4.06;nan
48862;BME280;34681;49.188;-0.374;2022-12-18T14:15:41;101329.84;;;4.20;nan
48862;BME280;34681;49.188;-0.374;2022-12-18T14:20:45;101336.53;;;4.29;nan
48862;BME280;34681;49.188;-0.374;2022-12-18T14:23:39;101332.75;;;4.17;nan
48862;BME280;34681;49.188;-0.374;2022-12-18T14:26:30;101334.59;;;4.16;nan
48862;BME280;34681;49.188;-0.374;2022-12-18T14:28:56;101341.19;;;4.57;nan
48862;BME280;34681;49.188;-0.374;2022-12-18T14:31:27;101332.66;;;4.48;nan
48862;BME280;34681;49.188;-0.374;2022-12-18T14:33:53;101329.28;;;4.73;nan
48862;BME280;34681;49.188;-0.374;2022-12-18T14:36:21;101323.66;;;4.48;nan
48862;BME280;34681;49.188;-0.374;2022-12-18T14:38:50;101332.56;;;4.78;nan
48862;BME280;34681;49.188;-0.374;2022-12-18T14:41:17;101329.97;;;4.77;nan
48862;BME280;34681;49.188;-0.374;2022-12-18T14:43:46;101326.78;;;4.85;nan
48862;BME280;34681;49.188;-0.374;2022-12-18T14:46:36;101316.59;;;5.17;nan
48862;BME280;34681;49.188;-0.374;2022-12-18T14:49:31;101312.34;;;4.84;nan